Time;durP1;ratioP1;P1;durP2;ratioP2;P2;SDS_P1;SDS_P2;PMS_P1;PMS_P2;Temp;Humidity;BMP_temperature;BMP_pressure;BME280_temperature;BME280_humidity;BME280_pressure;Samples;Min_cycle;Max_cycle;Signal;HPM_P1;HPM_P2
2022/01/03 00:02:12;;;;;;;3.87;1.77;;;15.20;55.70;;;;;;5078443;28;20448;-86
2022/01/03 00:04:41;;;;;;;3.03;1.40;;;15.20;55.90;;;;;;5052170;28;20823;-86
2022/01/03 00:07:08;;;;;;;3.60;1.20;;;15.20;56.30;;;;;;5081598;27;20481;-87
2022/01/03 00:09:37;;;;;;;5.53;1.80;;;15.00;56.50;;;;;;5077788;28;20439;-86
2022/01/03 00:12:05;;;;;;;5.90;1.53;;;15.00;57.30;;;;;;5095376;27;21099;-86
2022/01/03 00:14:32;;;;;;;2.43;1.60;;;14.80;57.30;;;;;;5090782;28;20454;-85
2022/01/03 00:16:59;;;;;;;6.73;1.63;;;14.80;57.80;;;;;;5095142;28;20479;-84
2022/01/03 00:19:26;;;;;;;3.90;1.67;;;14.80;57.40;;;;;;5081211;28;20850;-86
2022/01/03 00:21:58;;;;;;;2.70;1.17;;;15.10;57.40;;;;;;5080606;28;20945;-86
2022/01/03 00:24:28;;;;;;;6.13;1.70;;;15.20;57.20;;;;;;5052475;28;20540;-87
2022/01/03 00:27:01;;;;;;;4.40;1.30;;;15.00;56.50;;;;;;5073716;28;20550;-87
2022/01/03 00:29:33;;;;;;;4.50;1.73;;;14.70;56.80;;;;;;5098761;28;21041;-88
2022/01/03 00:32:01;;;;;;;1.67;1.30;;;14.70;57.90;;;;;;5097981;28;20466;-86
2022/01/03 00:34:33;;;;;;;3.00;1.40;;;14.90;58.50;;;;;;5091827;28;20458;-86
2022/01/03 00:37:02;;;;;;;6.50;2.13;;;14.80;58.70;;;;;;5078536;28;20485;-85
2022/01/03 00:39:32;;;;;;;4.23;1.50;;;14.90;60.50;;;;;;5095391;27;20546;-87
2022/01/03 00:41:59;;;;;;;2.40;1.17;;;14.70;60.80;;;;;;5066925;28;20465;-85
2022/01/03 00:44:26;;;;;;;4.17;1.43;;;14.50;62.60;;;;;;5094403;28;20451;-86
2022/01/03 00:46:54;;;;;;;3.07;1.90;;;14.70;63.60;;;;;;5068385;28;20833;-86
2022/01/03 00:49:21;;;;;;;1.43;0.80;;;14.30;65.60;;;;;;5059824;28;21245;-87
2022/01/03 00:51:48;;;;;;;5.87;1.10;;;13.60;64.60;;;;;;5070018;28;20453;-86
2022/01/03 00:54:17;;;;;;;6.07;1.50;;;13.40;64.90;;;;;;5087335;28;20506;-87
2022/01/03 00:56:48;;;;;;;4.77;1.30;;;13.30;66.20;;;;;;5104683;28;20483;-87
2022/01/03 00:59:17;;;;;;;2.40;1.00;;;13.30;66.90;;;;;;5084129;28;20447;-87
2022/01/03 01:01:47;;;;;;;1.67;0.80;;;13.10;65.70;;;;;;5085874;28;20483;-87
2022/01/03 01:04:16;;;;;;;4.97;0.83;;;13.10;66.40;;;;;;5107629;27;20814;-87
2022/01/03 01:06:48;;;;;;;4.50;1.10;;;13.20;66.60;;;;;;5089773;28;20478;-88
2022/01/03 01:09:18;;;;;;;3.80;0.77;;;13.20;65.70;;;;;;5092177;28;20470;-85
2022/01/03 01:11:46;;;;;;;1.87;0.90;;;13.20;66.00;;;;;;5075178;28;20502;-87
2022/01/03 01:14:17;;;;;;;2.00;0.87;;;13.40;66.30;;;;;;5073289;28;20443;-87
2022/01/03 01:16:44;;;;;;;5.67;1.10;;;13.10;65.40;;;;;;5077150;28;20981;-86
2022/01/03 01:19:12;;;;;;;3.57;1.10;;;13.00;66.50;;;;;;5095372;27;20496;-86
2022/01/03 01:21:42;;;;;;;0.73;0.73;;;13.10;66.10;;;;;;5094082;28;21003;-87
2022/01/03 01:24:09;;;;;;;1.90;1.10;;;13.10;64.90;;;;;;5072009;28;20462;-86
2022/01/03 01:29:22;;;;;;;1.00;0.80;;;13.10;64.40;;;;;;5075177;28;20545;-87
2022/01/03 01:31:51;;;;;;;1.73;0.67;;;13.00;63.80;;;;;;5071134;28;20443;-86
2022/01/03 01:34:26;;;;;;;2.80;0.80;;;12.90;64.50;;;;;;5078405;28;20537;-86
2022/01/03 01:36:55;;;;;;;1.83;0.80;;;13.00;63.80;;;;;;5054355;28;20483;-87
2022/01/03 01:39:25;;;;;;;2.30;0.77;;;12.90;63.00;;;;;;5100376;28;20894;-86
2022/01/03 01:41:58;;;;;;;1.50;1.20;;;12.70;62.80;;;;;;5089761;28;20458;-87
2022/01/03 01:44:26;;;;;;;1.73;0.70;;;12.60;63.40;;;;;;5086001;28;20463;-86
2022/01/03 01:47:01;;;;;;;5.47;0.93;;;12.70;63.70;;;;;;5086774;28;20478;-86
2022/01/03 01:49:28;;;;;;;1.37;1.00;;;12.80;62.20;;;;;;5071934;28;20471;-87
2022/01/03 01:52:01;;;;;;;5.83;0.90;;;12.80;61.80;;;;;;5062736;28;20451;-84
2022/01/03 01:54:35;;;;;;;0.77;0.60;;;12.80;62.30;;;;;;5070319;28;20524;-87
2022/01/03 01:57:17;;;;;;;1.00;0.90;;;12.90;62.20;;;;;;5089685;28;20469;-84
2022/01/03 02:00:03;;;;;;;4.43;0.90;;;12.90;61.70;;;;;;5094501;27;20492;-87
2022/01/03 02:02:47;;;;;;;1.90;0.70;;;12.80;62.10;;;;;;5109956;28;20462;-87
2022/01/03 02:05:21;;;;;;;1.37;0.90;;;12.70;62.50;;;;;;5078766;28;20438;-84
2022/01/03 02:08:03;;;;;;;3.13;1.00;;;12.70;62.50;;;;;;5107397;28;20470;-86
2022/01/03 02:10:37;;;;;;;2.70;1.20;;;12.80;62.20;;;;;;5075441;28;20450;-87
2022/01/03 02:13:07;;;;;;;2.40;0.80;;;12.90;62.10;;;;;;5085786;28;20444;-87
2022/01/03 02:15:37;;;;;;;1.67;0.80;;;12.90;62.10;;;;;;5087318;28;20856;-86
2022/01/03 02:18:06;;;;;;;0.90;0.80;;;13.00;62.70;;;;;;5090538;28;20551;-86
2022/01/03 02:20:35;;;;;;;0.80;0.70;;;12.90;62.50;;;;;;5092398;28;20459;-87
2022/01/03 02:23:07;;;;;;;1.93;0.83;;;13.00;63.00;;;;;;5088314;28;20723;-89
2022/01/03 02:25:37;;;;;;;1.90;0.87;;;12.80;63.20;;;;;;5078537;27;20448;-85
2022/01/03 02:28:04;;;;;;;3.03;1.03;;;12.50;63.40;;;;;;5094346;27;20612;-87
2022/01/03 02:30:33;;;;;;;4.77;1.10;;;12.40;64.60;;;;;;5075080;28;20471;-87
2022/01/03 02:33:00;;;;;;;3.67;1.00;;;12.30;64.90;;;;;;5075307;28;20451;-86
2022/01/03 02:35:29;;;;;;;2.47;0.90;;;12.50;64.50;;;;;;5089338;28;20549;-87
2022/01/03 02:37:57;;;;;;;1.10;0.80;;;12.60;64.20;;;;;;5087793;28;20878;-88
2022/01/03 02:40:25;;;;;;;5.77;1.20;;;12.70;64.10;;;;;;5096080;28;20435;-87
2022/01/03 02:42:55;;;;;;;3.20;0.97;;;12.90;63.50;;;;;;5109615;28;20474;-87
2022/01/03 02:45:27;;;;;;;3.87;0.93;;;12.90;63.10;;;;;;5071051;28;20446;-87
2022/01/03 02:47:58;;;;;;;1.80;0.83;;;13.10;63.00;;;;;;5107523;27;20479;-88
2022/01/03 02:50:28;;;;;;;1.70;0.90;;;13.00;61.90;;;;;;5070326;28;20440;-88
2022/01/03 02:52:56;;;;;;;3.90;1.10;;;12.80;62.90;;;;;;5097359;28;20785;-87
2022/01/03 02:55:26;;;;;;;4.20;1.27;;;12.70;62.90;;;;;;5095016;28;21239;-86
2022/01/03 02:57:56;;;;;;;1.70;0.80;;;12.70;62.60;;;;;;5088786;28;20474;-87
2022/01/03 03:00:27;;;;;;;2.10;1.00;;;12.90;62.20;;;;;;5092225;27;20443;-88
2022/01/03 03:02:54;;;;;;;2.43;1.00;;;13.00;62.40;;;;;;5110786;28;20455;-85
2022/01/03 03:05:24;;;;;;;2.40;1.03;;;13.00;61.60;;;;;;5111283;27;20455;-88
2022/01/03 03:07:53;;;;;;;2.60;1.10;;;12.90;61.70;;;;;;5091297;28;20467;-87
2022/01/03 03:10:24;;;;;;;3.70;1.43;;;12.90;61.90;;;;;;5093108;28;21041;-87
2022/01/03 03:12:53;;;;;;;3.03;1.60;;;13.00;61.80;;;;;;5076774;28;20466;-87
2022/01/03 03:15:21;;;;;;;3.33;1.57;;;13.00;61.60;;;;;;5085652;28;20443;-87
2022/01/03 03:17:49;;;;;;;19.73;6.67;;;12.90;61.80;;;;;;5101817;27;20953;-87
2022/01/03 03:20:18;;;;;;;5.87;2.43;;;13.10;61.20;;;;;;5071429;28;20443;-88
2022/01/03 03:22:49;;;;;;;2.60;2.10;;;13.20;60.70;;;;;;5089813;28;20458;-87
2022/01/03 03:25:19;;;;;;;4.13;1.40;;;13.20;60.30;;;;;;5091660;28;20478;-87
2022/01/03 03:27:49;;;;;;;6.40;1.10;;;13.20;60.70;;;;;;5102521;27;20482;-87
2022/01/03 03:30:23;;;;;;;1.70;1.30;;;13.20;60.20;;;;;;5093665;28;20459;-86
2022/01/03 03:32:52;;;;;;;2.37;1.50;;;13.10;60.00;;;;;;5095847;27;20949;-87
2022/01/03 03:35:20;;;;;;;3.93;1.40;;;12.90;60.40;;;;;;5074838;28;20456;-87
2022/01/03 03:37:48;;;;;;;4.60;3.20;;;12.70;61.10;;;;;;5087136;28;20806;-87
2022/01/03 03:40:16;;;;;;;5.60;3.40;;;12.90;61.10;;;;;;5076855;28;20543;-87
2022/01/03 03:42:43;;;;;;;7.23;2.90;;;12.90;61.10;;;;;;5088978;28;20451;-87
2022/01/03 03:45:13;;;;;;;7.37;2.90;;;12.70;61.30;;;;;;5104410;28;20454;-85
2022/01/03 03:47:41;;;;;;;7.73;2.27;;;12.80;62.10;;;;;;5070176;28;20467;-87
2022/01/03 03:50:09;;;;;;;9.33;3.73;;;12.90;61.20;;;;;;5087525;28;21035;-87
2022/01/03 03:52:37;;;;;;;3.60;2.20;;;12.90;61.60;;;;;;5089095;28;20538;-87
2022/01/03 03:55:06;;;;;;;6.57;2.40;;;12.90;60.90;;;;;;5072630;28;20530;-86
2022/01/03 03:57:33;;;;;;;3.53;2.33;;;12.80;61.30;;;;;;5088568;28;20468;-87
2022/01/03 04:00:02;;;;;;;3.73;2.33;;;13.00;60.70;;;;;;5090949;28;20450;-85
2022/01/03 04:02:31;;;;;;;5.73;1.37;;;12.90;60.90;;;;;;5107939;28;21104;-88
2022/01/03 04:05:00;;;;;;;14.67;7.47;;;12.90;61.20;;;;;;5074531;28;20564;-88
2022/01/03 04:07:27;;;;;;;14.13;5.23;;;12.80;61.50;;;;;;5066283;28;20474;-87
2022/01/03 04:09:54;;;;;;;7.07;1.83;;;12.80;61.60;;;;;;5091115;28;20467;-89
2022/01/03 04:12:22;;;;;;;15.83;5.90;;;12.80;61.90;;;;;;5077193;27;20469;-85
2022/01/03 04:14:49;;;;;;;18.73;7.10;;;12.70;61.80;;;;;;5070154;28;20453;-87
2022/01/03 04:17:16;;;;;;;12.13;4.30;;;12.50;62.60;;;;;;5081830;28;20520;-88
2022/01/03 04:19:46;;;;;;;3.60;2.90;;;12.70;62.30;;;;;;5048817;28;20443;-85
2022/01/03 04:22:13;;;;;;;3.17;2.30;;;12.70;62.20;;;;;;5106878;28;20496;-87
2022/01/03 04:24:40;;;;;;;1.20;1.10;;;12.80;62.00;;;;;;5087888;28;20977;-86
2022/01/03 04:27:08;;;;;;;6.70;2.57;;;12.70;61.40;;;;;;5066353;28;20558;-86
2022/01/03 04:29:35;;;;;;;5.27;1.13;;;12.80;62.00;;;;;;5066730;28;20520;-86
2022/01/03 04:32:03;;;;;;;4.37;1.97;;;13.00;61.60;;;;;;5090418;28;20470;-87
2022/01/03 04:34:30;;;;;;;2.80;1.23;;;13.20;61.30;;;;;;5072914;28;20438;-87
2022/01/03 04:36:59;;;;;;;6.43;1.07;;;13.30;60.60;;;;;;5106815;28;20477;-86
2022/01/03 04:39:27;;;;;;;3.93;1.43;;;13.10;60.60;;;;;;5072912;28;20481;-86
2022/01/03 04:41:54;;;;;;;2.20;1.53;;;13.00;61.30;;;;;;5090634;28;20788;-87
2022/01/03 04:44:21;;;;;;;2.90;1.20;;;13.20;61.10;;;;;;5091434;27;20515;-85
2022/01/03 04:46:49;;;;;;;3.53;1.20;;;13.00;60.80;;;;;;5089035;28;20842;-86
2022/01/03 04:49:16;;;;;;;5.67;0.97;;;13.00;61.60;;;;;;5102366;28;20498;-86
2022/01/03 04:51:43;;;;;;;4.43;1.40;;;13.10;61.50;;;;;;5089997;28;20462;-86
2022/01/03 04:54:11;;;;;;;3.30;1.17;;;13.10;61.60;;;;;;5072218;28;20476;-87
2022/01/03 04:56:39;;;;;;;1.70;0.97;;;13.20;61.30;;;;;;5072547;28;20459;-87
2022/01/03 04:59:07;;;;;;;1.90;0.90;;;13.40;61.10;;;;;;5070703;28;20447;-87
2022/01/03 05:01:34;;;;;;;2.60;1.23;;;13.50;60.30;;;;;;5099668;28;20534;-87
2022/01/03 05:04:02;;;;;;;1.23;1.00;;;13.60;60.30;;;;;;5068866;28;20454;-86
2022/01/03 05:06:29;;;;;;;4.30;1.40;;;13.70;60.40;;;;;;5072225;28;21085;-88
2022/01/03 05:08:56;;;;;;;4.80;1.23;;;13.70;60.00;;;;;;5100499;28;20961;-87
2022/01/03 05:11:25;;;;;;;3.73;0.97;;;13.60;59.90;;;;;;5099457;28;20440;-87
2022/01/03 05:13:52;;;;;;;2.30;1.30;;;13.40;60.70;;;;;;5092389;28;20481;-87
2022/01/03 05:16:19;;;;;;;4.10;1.23;;;13.40;61.30;;;;;;5073265;28;20502;-87
2022/01/03 05:18:46;;;;;;;2.93;1.03;;;13.50;60.70;;;;;;5071288;28;20448;-88
2022/01/03 05:21:15;;;;;;;7.93;1.30;;;13.50;60.90;;;;;;5078213;28;20488;-87
2022/01/03 05:23:45;;;;;;;1.57;1.07;;;13.60;61.20;;;;;;5082915;28;20459;-87
2022/01/03 05:26:12;;;;;;;4.53;1.60;;;13.50;61.80;;;;;;5069244;28;20474;-87
2022/01/03 05:28:41;;;;;;;1.57;1.20;;;13.40;62.60;;;;;;5067773;28;20447;-87
2022/01/03 05:31:10;;;;;;;4.40;1.60;;;13.40;63.20;;;;;;5072530;28;20477;-86
2022/01/03 05:33:37;;;;;;;5.10;1.57;;;13.30;63.80;;;;;;5051501;28;20448;-86
2022/01/03 05:36:04;;;;;;;3.63;1.60;;;13.30;64.10;;;;;;5091087;28;20471;-87
2022/01/03 05:38:31;;;;;;;4.80;1.20;;;13.20;65.10;;;;;;5087599;28;20484;-88
2022/01/03 05:40:59;;;;;;;1.87;1.40;;;13.00;65.60;;;;;;5078870;28;20442;-87
2022/01/03 05:43:26;;;;;;;2.10;1.10;;;12.50;66.60;;;;;;5084240;28;20543;-87
2022/01/03 05:45:55;;;;;;;2.00;1.00;;;12.40;66.90;;;;;;5079336;28;20463;-87
2022/01/03 05:48:22;;;;;;;1.80;0.80;;;12.20;65.90;;;;;;5059126;28;20594;-87
2022/01/03 05:50:49;;;;;;;1.23;0.83;;;12.30;66.00;;;;;;5100999;27;20509;-87
2022/01/03 05:53:16;;;;;;;1.77;0.80;;;12.30;66.50;;;;;;5077795;28;20455;-88
2022/01/03 05:55:44;;;;;;;2.90;1.23;;;12.50;66.20;;;;;;5068390;27;20458;-88
2022/01/03 05:58:11;;;;;;;2.53;0.80;;;12.60;65.70;;;;;;5046300;28;20966;-89
2022/01/03 06:00:39;;;;;;;3.27;0.83;;;12.80;64.40;;;;;;5063098;28;20454;-88
2022/01/03 06:03:07;;;;;;;57.73;31.03;;;12.90;64.70;;;;;;5097138;27;20455;-89
2022/01/03 06:05:53;;;;;;;14.70;11.47;;;13.00;64.10;;;;;;5062698;28;20957;-87
2022/01/03 06:08:20;;;;;;;7.37;5.40;;;13.10;63.90;;;;;;5054845;28;20481;-88
2022/01/03 06:10:50;;;;;;;1.97;1.70;;;13.20;63.60;;;;;;5071511;28;20471;-89
2022/01/03 06:13:24;;;;;;;3.33;3.03;;;13.20;63.30;;;;;;5061173;28;20603;-89
2022/01/03 06:15:53;;;;;;;7.40;3.80;;;13.30;63.10;;;;;;5073262;28;20554;-90
2022/01/03 06:18:23;;;;;;;4.80;4.37;;;13.10;63.10;;;;;;5051888;28;20454;-89
2022/01/03 06:20:54;;;;;;;1.70;1.53;;;13.00;63.70;;;;;;5051659;28;20479;-91
2022/01/03 06:23:25;;;;;;;2.20;2.00;;;13.00;64.40;;;;;;5085796;28;20910;-90
2022/01/03 06:25:52;;;;;;;3.93;3.53;;;13.20;63.90;;;;;;5071467;28;20504;-91
2022/01/03 06:28:34;;;;;;;4.10;3.80;;;13.30;63.60;;;;;;5068127;28;20950;-90
2022/01/03 06:31:01;;;;;;;1.40;1.30;;;13.50;63.30;;;;;;5079726;28;20468;-89
2022/01/03 06:33:30;;;;;;;2.13;1.10;;;13.70;62.70;;;;;;5078478;28;20567;-89
2022/01/03 06:35:57;;;;;;;1.10;1.00;;;13.80;62.30;;;;;;5054396;28;20471;-91
2022/01/03 06:38:24;;;;;;;4.60;1.23;;;13.90;61.70;;;;;;5051145;28;20454;-89
2022/01/03 06:40:52;;;;;;;5.10;1.50;;;13.90;61.70;;;;;;5063295;28;20956;-90
2022/01/03 06:43:19;;;;;;;2.30;2.20;;;13.90;61.80;;;;;;5067758;28;20448;-91
2022/01/03 06:45:47;;;;;;;3.70;2.63;;;13.90;61.70;;;;;;5083669;28;20454;-89
2022/01/03 06:48:14;;;;;;;8.20;2.40;;;13.90;61.90;;;;;;5066829;28;20492;-90
2022/01/03 06:50:42;;;;;;;6.33;1.93;;;13.90;62.00;;;;;;5067032;28;20621;-89
2022/01/03 06:53:09;;;;;;;4.07;1.50;;;13.70;62.30;;;;;;5081330;28;20481;-89
2022/01/03 06:55:39;;;;;;;10.03;1.50;;;13.50;63.00;;;;;;5062484;28;21018;-90
2022/01/03 06:58:06;;;;;;;4.40;1.80;;;13.20;63.90;;;;;;5079417;28;20492;-87
2022/01/03 07:00:33;;;;;;;3.20;1.20;;;12.70;64.90;;;;;;5083535;28;20977;-87
2022/01/03 07:03:00;;;;;;;2.00;1.73;;;12.60;66.00;;;;;;5057554;28;20501;-87
2022/01/03 07:05:28;;;;;;;1.67;1.57;;;12.60;66.40;;;;;;5070042;28;21026;-87
2022/01/03 07:07:56;;;;;;;6.73;2.57;;;12.30;66.70;;;;;;5070312;28;20474;-85
2022/01/03 07:10:23;;;;;;;4.20;1.83;;;12.40;67.10;;;;;;5097987;27;20475;-86
2022/01/03 07:12:52;;;;;;;6.07;1.80;;;12.50;66.50;;;;;;5093112;28;21125;-87
2022/01/03 07:20:50;;;;;;;2.13;1.00;;;12.20;66.00;;;;;;5071946;28;20459;-85
2022/01/03 07:23:19;;;;;;;1.40;0.90;;;12.00;64.40;;;;;;5057837;28;20471;-87
2022/01/03 07:25:47;;;;;;;1.70;1.23;;;11.90;65.30;;;;;;5096903;27;21009;-87
2022/01/03 07:28:15;;;;;;;5.20;1.30;;;11.90;66.10;;;;;;5093342;28;20443;-87
2022/01/03 07:30:42;;;;;;;3.53;1.03;;;12.30;66.00;;;;;;5093423;28;20466;-87
2022/01/03 07:33:09;;;;;;;2.80;1.93;;;12.40;64.50;;;;;;5094379;27;20444;-88
2022/01/03 07:35:37;;;;;;;2.30;1.50;;;12.40;64.70;;;;;;5100324;28;20439;-86
2022/01/03 07:38:05;;;;;;;3.10;2.20;;;12.60;64.10;;;;;;5077495;27;20450;-88
2022/01/03 07:40:33;;;;;;;7.10;2.90;;;12.80;63.50;;;;;;5065295;28;20524;-89
2022/01/03 07:43:00;;;;;;;1.90;1.30;;;12.90;63.10;;;;;;5100018;28;20452;-88
2022/01/03 07:45:27;;;;;;;4.03;2.43;;;13.10;62.80;;;;;;5068501;28;20450;-88
2022/01/03 07:47:54;;;;;;;3.50;1.17;;;13.20;62.20;;;;;;5084185;28;20489;-88
2022/01/03 07:50:21;;;;;;;4.67;1.27;;;13.30;61.70;;;;;;5082926;28;20471;-87
2022/01/03 07:52:48;;;;;;;2.97;1.30;;;13.20;61.30;;;;;;5102822;28;20932;-88
2022/01/03 07:55:16;;;;;;;2.30;1.60;;;13.20;61.60;;;;;;5085436;28;20443;-88
2022/01/03 07:57:45;;;;;;;3.10;1.50;;;13.10;62.30;;;;;;5082653;28;20466;-87
2022/01/03 08:00:16;;;;;;;3.83;1.60;;;12.90;63.40;;;;;;5089776;28;20453;-89
2022/01/03 08:02:43;;;;;;;9.40;2.30;;;12.90;63.40;;;;;;5075237;28;20463;-88
2022/01/03 08:05:13;;;;;;;3.17;1.53;;;12.80;64.00;;;;;;5088003;28;20467;-87
2022/01/03 08:07:42;;;;;;;10.03;3.30;;;12.70;64.80;;;;;;5105536;28;20476;-89
2022/01/03 08:10:11;;;;;;;11.27;2.40;;;12.70;65.30;;;;;;5087394;28;20562;-89
2022/01/03 08:12:39;;;;;;;3.50;1.77;;;12.60;64.90;;;;;;5089658;28;20538;-88
2022/01/03 08:15:09;;;;;;;8.23;2.03;;;12.50;65.60;;;;;;5112959;27;20438;-88
2022/01/03 08:17:36;;;;;;;8.83;1.77;;;12.70;65.40;;;;;;5085385;28;20531;-88
2022/01/03 08:20:05;;;;;;;5.23;2.30;;;12.90;65.00;;;;;;5091261;28;20435;-87
2022/01/03 08:22:33;;;;;;;3.80;1.90;;;12.90;64.70;;;;;;5092661;28;20466;-88
2022/01/03 08:25:00;;;;;;;5.40;2.40;;;13.00;63.90;;;;;;5066467;28;20484;-87
2022/01/03 08:27:27;;;;;;;5.63;2.70;;;13.20;63.80;;;;;;5067400;28;20452;-88
2022/01/03 08:29:54;;;;;;;12.30;2.53;;;13.40;63.50;;;;;;5082781;27;20455;-89
2022/01/03 08:32:22;;;;;;;3.73;2.50;;;13.40;63.00;;;;;;5084657;28;20444;-87
2022/01/03 08:34:50;;;;;;;7.47;2.60;;;13.40;63.00;;;;;;5073817;28;20476;-88
2022/01/03 08:37:17;;;;;;;4.40;2.43;;;13.40;63.40;;;;;;5064415;28;20471;-88
2022/01/03 08:39:44;;;;;;;5.93;2.07;;;13.30;63.20;;;;;;5095065;28;20439;-88
2022/01/03 08:42:11;;;;;;;8.37;2.20;;;13.30;63.40;;;;;;5087177;28;20446;-88
2022/01/03 08:44:38;;;;;;;7.13;2.10;;;13.40;63.20;;;;;;5099350;28;20534;-88
2022/01/03 08:47:06;;;;;;;11.03;3.20;;;13.40;63.20;;;;;;5105086;28;20471;-89
2022/01/03 08:49:34;;;;;;;4.40;2.00;;;13.40;63.40;;;;;;5083290;28;20462;-90
2022/01/03 08:52:03;;;;;;;6.30;2.43;;;13.40;63.40;;;;;;5088215;28;21148;-90
2022/01/03 08:54:31;;;;;;;6.00;2.90;;;13.50;63.50;;;;;;5071681;28;20962;-90
2022/01/03 08:56:58;;;;;;;12.40;3.10;;;13.60;63.20;;;;;;5074877;28;20506;-90
2022/01/03 08:59:26;;;;;;;6.30;2.60;;;13.70;63.10;;;;;;5104891;28;20450;-90
2022/01/03 09:01:53;;;;;;;5.20;2.50;;;13.80;62.80;;;;;;5071042;28;20482;-90
2022/01/03 09:04:20;;;;;;;6.50;2.60;;;13.70;62.80;;;;;;5052412;28;20890;-89
2022/01/03 09:06:50;;;;;;;4.90;2.47;;;13.60;63.50;;;;;;5079218;28;20474;-87
2022/01/03 09:09:17;;;;;;;11.40;2.80;;;13.30;64.20;;;;;;5063317;28;20437;-88
2022/01/03 09:11:44;;;;;;;6.30;2.43;;;13.20;64.90;;;;;;5059332;28;21241;-88
2022/01/03 09:14:11;;;;;;;8.57;3.87;;;12.80;64.50;;;;;;5070141;28;20440;-89
2022/01/03 09:16:38;;;;;;;7.80;2.77;;;12.70;65.70;;;;;;5064317;28;20527;-89
2022/01/03 09:19:05;;;;;;;2.53;2.10;;;12.80;65.10;;;;;;5094457;28;20459;-89
2022/01/03 09:21:32;;;;;;;3.43;3.10;;;12.90;65.10;;;;;;5075261;28;20459;-90
2022/01/03 09:24:20;;;;;;;6.80;2.37;;;13.00;64.50;;;;;;5075540;28;20458;-90
2022/01/03 09:29:31;;;;;;;9.20;3.23;;;13.50;63.40;;;;;;5074831;28;20439;-90
2022/01/03 09:31:58;;;;;;;5.47;2.57;;;13.60;62.50;;;;;;5076020;28;21100;-89
2022/01/03 09:34:25;;;;;;;6.73;2.67;;;13.80;62.60;;;;;;5063382;28;20458;-91
2022/01/03 09:36:52;;;;;;;2.80;1.33;;;13.80;61.80;;;;;;5096170;27;20467;-89
2022/01/03 09:39:22;;;;;;;9.20;2.50;;;13.90;62.00;;;;;;5094280;28;20447;-90
2022/01/03 09:41:59;;;;;;;5.73;2.60;;;14.00;61.90;;;;;;5076785;28;20455;-89
2022/01/03 09:44:30;;;;;;;11.00;2.73;;;13.90;61.70;;;;;;5081031;28;20541;-89
2022/01/03 09:47:01;;;;;;;6.77;2.43;;;13.80;62.40;;;;;;5067618;28;20480;-90
2022/01/03 09:49:32;;;;;;;6.13;3.90;;;13.60;63.30;;;;;;5079519;28;20455;-89
2022/01/03 09:52:00;;;;;;;7.17;3.53;;;13.50;63.60;;;;;;5097762;28;20474;-89
2022/01/03 09:54:29;;;;;;;9.40;2.70;;;13.60;63.90;;;;;;5078430;28;20571;-88
2022/01/03 09:56:58;;;;;;;9.33;3.70;;;13.70;63.90;;;;;;5077468;28;21032;-90
2022/01/03 09:59:26;;;;;;;11.20;5.00;;;13.80;63.60;;;;;;5080510;28;20545;-88
2022/01/03 10:01:54;;;;;;;14.27;3.50;;;13.80;64.10;;;;;;5083387;28;20799;-88
2022/01/03 10:04:21;;;;;;;8.13;3.80;;;13.90;63.80;;;;;;5096065;28;20903;-89
2022/01/03 10:06:48;;;;;;;7.73;2.87;;;14.10;63.40;;;;;;5081248;28;20483;-88
2022/01/03 10:09:15;;;;;;;11.67;6.13;;;14.20;63.30;;;;;;5063861;28;20451;-88
2022/01/03 10:11:43;;;;;;;10.40;5.30;;;14.10;63.30;;;;;;5098799;28;20897;-89
2022/01/03 10:14:12;;;;;;;9.07;2.63;;;14.20;63.10;;;;;;5083295;28;20462;-88
2022/01/03 10:16:39;;;;;;;4.60;1.83;;;14.20;62.90;;;;;;5066605;28;20578;-89
2022/01/03 10:19:06;;;;;;;5.03;2.50;;;14.20;63.00;;;;;;5082503;28;20462;-89
2022/01/03 10:21:35;;;;;;;8.73;2.23;;;14.20;63.00;;;;;;5097253;28;21017;-86
2022/01/03 10:24:02;;;;;;;12.47;6.40;;;14.00;63.40;;;;;;5106402;27;20466;-89
2022/01/03 10:26:29;;;;;;;11.50;6.90;;;13.90;63.80;;;;;;5105223;27;20712;-90
2022/01/03 10:29:14;;;;;;;10.53;6.43;;;14.00;64.20;;;;;;5097305;27;21005;-89
2022/01/03 10:31:44;;;;;;;11.50;2.60;;;14.10;63.90;;;;;;5088953;28;20458;-88
2022/01/03 10:34:13;;;;;;;8.43;4.07;;;14.20;63.50;;;;;;5098998;27;20455;-90
2022/01/03 10:36:44;;;;;;;5.30;2.97;;;14.20;63.40;;;;;;5059510;28;20467;-91
2022/01/03 10:39:19;;;;;;;11.20;4.20;;;14.20;63.40;;;;;;5065813;28;20847;-89
2022/01/03 10:41:48;;;;;;;9.17;3.13;;;14.20;63.30;;;;;;5077968;27;20963;-89
2022/01/03 10:47:09;;;;;;;7.00;4.90;;;14.20;63.60;;;;;;5067732;27;1426977;-88
2022/01/03 10:49:38;;;;;;;6.60;2.10;;;13.90;64.70;;;;;;5066482;28;20508;-89
2022/01/03 10:52:17;;;;;;;6.70;2.50;;;13.70;64.90;;;;;;5064316;28;20495;-89
2022/01/03 10:54:46;;;;;;;12.67;2.57;;;13.80;65.20;;;;;;5080182;28;20450;-89
2022/01/03 10:57:15;;;;;;;11.27;3.30;;;13.60;65.20;;;;;;5067544;28;20531;-89
2022/01/03 10:59:42;;;;;;;5.70;2.20;;;13.70;65.40;;;;;;5063955;28;20501;-89
2022/01/03 11:02:13;;;;;;;10.63;2.47;;;13.80;65.30;;;;;;5063074;28;20460;-90
2022/01/03 11:04:48;;;;;;;5.27;2.90;;;13.80;65.30;;;;;;5078377;28;20455;-89
2022/01/03 11:13:08;;;;;;;10.57;3.17;;;13.60;66.00;;;;;;5047503;28;20450;-89
2022/01/03 11:15:36;;;;;;;7.80;3.60;;;13.50;65.60;;;;;;5071997;28;20457;-90
2022/01/03 11:18:13;;;;;;;9.80;3.70;;;13.50;66.10;;;;;;5074934;28;20486;-92
2022/01/03 11:20:41;;;;;;;11.13;4.70;;;13.70;65.80;;;;;;5073925;28;20945;-92
2022/01/03 11:23:08;;;;;;;4.20;2.20;;;13.80;65.50;;;;;;5070542;28;20455;-90
2022/01/03 11:25:36;;;;;;;8.23;3.70;;;13.80;65.40;;;;;;5071027;28;21397;-89
2022/01/03 11:28:05;;;;;;;11.13;2.40;;;13.80;64.90;;;;;;5062172;28;20479;-87
2022/01/03 11:30:32;;;;;;;7.53;2.10;;;13.70;65.00;;;;;;5061182;28;20454;-90
2022/01/03 11:33:01;;;;;;;5.47;1.70;;;13.80;65.30;;;;;;5072865;28;20950;-92
2022/01/03 11:35:30;;;;;;;4.10;2.47;;;13.90;64.60;;;;;;5053320;28;20951;-90
2022/01/03 11:38:00;;;;;;;7.63;2.80;;;13.90;64.50;;;;;;5080396;28;20482;-90
2022/01/03 11:40:28;;;;;;;8.30;2.83;;;13.80;65.40;;;;;;5073215;28;20447;-89
2022/01/03 11:42:56;;;;;;;7.07;2.13;;;13.80;64.90;;;;;;5071076;28;20459;-89
2022/01/03 11:45:23;;;;;;;9.23;2.60;;;13.80;64.90;;;;;;5041814;28;20512;-90
2022/01/03 11:47:52;;;;;;;15.17;3.47;;;13.90;65.00;;;;;;5055373;28;20809;-90
2022/01/03 11:50:19;;;;;;;7.00;2.37;;;14.00;64.90;;;;;;5075072;28;20458;-89
2022/01/03 11:52:48;;;;;;;3.70;2.13;;;13.80;65.20;;;;;;5091170;28;20807;-90
2022/01/03 11:55:16;;;;;;;6.90;2.63;;;13.90;65.30;;;;;;5071189;28;20452;-89
2022/01/03 12:03:49;;;;;;;6.97;2.30;;;14.20;64.20;;;;;;5042539;28;20964;-89
2022/01/03 12:06:26;;;;;;;7.33;2.80;;;14.10;63.20;;;;;;5047893;28;20558;-90
2022/01/03 12:08:58;;;;;;;5.33;2.43;;;14.10;64.20;;;;;;5060047;28;21136;-89
2022/01/03 12:11:27;;;;;;;12.63;2.50;;;14.20;63.90;;;;;;5062219;28;20446;-91
2022/01/03 12:13:55;;;;;;;5.87;2.20;;;14.30;63.70;;;;;;5067289;28;20464;-89
2022/01/03 12:16:46;;;;;;;6.70;2.60;;;14.30;63.20;;;;;;5044765;28;20885;-90
2022/01/03 12:19:27;;;;;;;6.80;1.90;;;14.40;63.30;;;;;;5063249;28;20955;-89
2022/01/03 12:22:07;;;;;;;5.83;2.07;;;14.30;63.50;;;;;;5057391;28;20852;-92
2022/01/03 12:24:56;;;;;;;3.33;2.40;;;14.30;63.60;;;;;;5077192;28;21019;-89
2022/01/03 12:27:36;;;;;;;7.43;2.60;;;14.30;63.60;;;;;;5049220;28;20482;-90
2022/01/03 12:30:09;;;;;;;10.03;2.10;;;14.40;63.50;;;;;;5058227;28;20521;-90
2022/01/03 12:32:37;;;;;;;11.77;2.60;;;14.40;62.40;;;;;;5045846;28;20457;-90
2022/01/03 12:35:24;;;;;;;5.20;2.97;;;14.30;62.70;;;;;;5050329;28;20460;-90
2022/01/03 12:38:12;;;;;;;6.63;2.43;;;14.40;62.30;;;;;;5049804;28;20467;-89
2022/01/03 12:40:56;;;;;;;8.40;2.70;;;14.40;62.80;;;;;;5056396;28;20459;-90
2022/01/03 12:43:36;;;;;;;7.30;1.63;;;14.20;63.30;;;;;;5047772;28;20467;-90
2022/01/03 12:46:05;;;;;;;5.07;2.60;;;14.30;63.10;;;;;;5057585;28;20476;-89
2022/01/03 12:48:34;;;;;;;5.80;2.47;;;14.30;63.20;;;;;;5044340;28;20440;-89
2022/01/03 12:51:14;;;;;;;6.53;4.20;;;14.50;63.00;;;;;;5059282;28;20450;-89
2022/01/03 12:53:50;;;;;;;5.47;4.83;;;14.50;62.90;;;;;;5059772;28;20451;-90
2022/01/03 12:56:22;;;;;;;13.23;10.90;;;14.40;63.20;;;;;;5042249;28;20556;-89
2022/01/03 12:58:52;;;;;;;8.90;4.23;;;14.40;62.60;;;;;;5041285;28;20452;-89
2022/01/03 13:01:32;;;;;;;6.60;5.77;;;14.40;61.70;;;;;;5057393;28;20452;-90
2022/01/03 13:04:19;;;;;;;5.80;3.10;;;14.50;62.80;;;;;;5039436;28;20828;-90
2022/01/03 13:06:47;;;;;;;6.97;2.63;;;14.50;62.50;;;;;;5046844;28;20531;-90
2022/01/03 13:09:14;;;;;;;6.60;2.70;;;14.50;62.00;;;;;;5072146;28;20464;-89
2022/01/03 13:11:44;;;;;;;9.43;2.87;;;14.40;62.20;;;;;;5055467;28;20813;-90
2022/01/03 13:14:15;;;;;;;7.40;2.43;;;14.20;62.70;;;;;;5067668;28;20446;-90
2022/01/03 13:16:44;;;;;;;4.43;2.07;;;14.20;63.00;;;;;;5053355;28;20474;-88
2022/01/03 13:19:13;;;;;;;4.30;1.80;;;14.30;62.50;;;;;;5086776;28;20449;-89
2022/01/03 13:21:44;;;;;;;8.30;2.20;;;14.40;62.80;;;;;;5067617;28;20484;-88
2022/01/03 13:24:13;;;;;;;3.17;1.73;;;14.30;62.60;;;;;;5052367;28;21194;-88